sensor_id;sensor_type;location;lat;lon;timestamp;P1;durP1;ratioP1;P2;durP2;ratioP2
43996;SDS011;34318;45.818;15.964;2023-03-20T00:00:23;20.60;;;10.27;;
43996;SDS011;34318;45.818;15.964;2023-03-20T00:02:51;19.02;;;11.00;;
43996;SDS011;34318;45.818;15.964;2023-03-20T00:05:19;15.80;;;8.48;;
43996;SDS011;34318;45.818;15.964;2023-03-20T00:07:47;15.77;;;9.05;;
43996;SDS011;34318;45.818;15.964;2023-03-20T00:10:15;18.35;;;9.77;;
43996;SDS011;34318;45.818;15.964;2023-03-20T00:12:44;13.50;;;9.07;;
43996;SDS011;34318;45.818;15.964;2023-03-20T00:15:18;16.10;;;9.18;;
43996;SDS011;34318;45.818;15.964;2023-03-20T00:17:48;13.85;;;8.02;;
43996;SDS011;34318;45.818;15.964;2023-03-20T00:20:16;19.52;;;8.98;;
43996;SDS011;34318;45.818;15.964;2023-03-20T00:22:43;16.25;;;9.45;;
43996;SDS011;34318;45.818;15.964;2023-03-20T00:25:11;16.05;;;8.68;;
43996;SDS011;34318;45.818;15.964;2023-03-20T00:27:40;16.25;;;8.90;;
43996;SDS011;34318;45.818;15.964;2023-03-20T00:30:24;16.52;;;8.25;;
43996;SDS011;34318;45.818;15.964;2023-03-20T00:32:54;13.13;;;8.52;;
43996;SDS011;34318;45.818;15.964;2023-03-20T00:35:26;12.55;;;7.85;;
43996;SDS011;34318;45.818;15.964;2023-03-20T00:37:55;13.80;;;7.90;;
43996;SDS011;34318;45.818;15.964;2023-03-20T00:40:25;11.43;;;7.28;;
43996;SDS011;34318;45.818;15.964;2023-03-20T00:42:55;14.38;;;8.05;;
43996;SDS011;34318;45.818;15.964;2023-03-20T00:45:24;13.93;;;8.35;;
43996;SDS011;34318;45.818;15.964;2023-03-20T00:47:51;11.13;;;7.78;;
43996;SDS011;34318;45.818;15.964;2023-03-20T00:50:23;14.98;;;8.43;;
43996;SDS011;34318;45.818;15.964;2023-03-20T00:52:51;10.45;;;7.75;;
43996;SDS011;34318;45.818;15.964;2023-03-20T00:55:19;13.57;;;8.18;;
43996;SDS011;34318;45.818;15.964;2023-03-20T00:57:48;13.23;;;7.65;;
43996;SDS011;34318;45.818;15.964;2023-03-20T01:02:46;11.90;;;7.80;;
43996;SDS011;34318;45.818;15.964;2023-03-20T01:05:13;19.85;;;7.68;;
43996;SDS011;34318;45.818;15.964;2023-03-20T01:07:41;10.55;;;6.68;;
43996;SDS011;34318;45.818;15.964;2023-03-20T01:10:08;10.65;;;7.97;;
43996;SDS011;34318;45.818;15.964;2023-03-20T01:12:38;11.43;;;8.10;;
43996;SDS011;34318;45.818;15.964;2023-03-20T01:15:17;12.07;;;7.60;;
43996;SDS011;34318;45.818;15.964;2023-03-20T01:17:44;14.50;;;7.20;;
43996;SDS011;34318;45.818;15.964;2023-03-20T01:20:17;14.18;;;6.90;;
43996;SDS011;34318;45.818;15.964;2023-03-20T01:22:44;10.02;;;7.38;;
43996;SDS011;34318;45.818;15.964;2023-03-20T01:25:12;12.52;;;7.53;;
43996;SDS011;34318;45.818;15.964;2023-03-20T01:27:39;11.05;;;6.95;;
43996;SDS011;34318;45.818;15.964;2023-03-20T01:30:14;8.23;;;6.13;;
43996;SDS011;34318;45.818;15.964;2023-03-20T01:32:42;9.65;;;6.80;;
43996;SDS011;34318;45.818;15.964;2023-03-20T01:35:12;12.80;;;7.22;;
43996;SDS011;34318;45.818;15.964;2023-03-20T01:37:40;8.68;;;6.30;;
43996;SDS011;34318;45.818;15.964;2023-03-20T01:40:53;9.32;;;7.45;;
43996;SDS011;34318;45.818;15.964;2023-03-20T01:42:54;9.52;;;6.50;;
43996;SDS011;34318;45.818;15.964;2023-03-20T01:45:23;10.48;;;7.15;;
43996;SDS011;34318;45.818;15.964;2023-03-20T01:47:52;10.43;;;6.35;;
43996;SDS011;34318;45.818;15.964;2023-03-20T01:50:27;11.20;;;7.20;;
43996;SDS011;34318;45.818;15.964;2023-03-20T01:52:57;9.57;;;6.90;;
43996;SDS011;34318;45.818;15.964;2023-03-20T01:55:25;10.25;;;6.50;;
43996;SDS011;34318;45.818;15.964;2023-03-20T01:57:53;10.50;;;6.47;;
43996;SDS011;34318;45.818;15.964;2023-03-20T02:00:22;10.63;;;6.55;;
43996;SDS011;34318;45.818;15.964;2023-03-20T02:02:50;15.55;;;6.82;;
43996;SDS011;34318;45.818;15.964;2023-03-20T02:05:20;10.80;;;6.40;;
43996;SDS011;34318;45.818;15.964;2023-03-20T02:08:50;8.45;;;6.28;;
43996;SDS011;34318;45.818;15.964;2023-03-20T02:10:45;9.05;;;6.72;;
43996;SDS011;34318;45.818;15.964;2023-03-20T02:13:12;9.30;;;6.35;;
43996;SDS011;34318;45.818;15.964;2023-03-20T02:18:27;12.45;;;6.30;;
43996;SDS011;34318;45.818;15.964;2023-03-20T02:26:21;9.70;;;6.22;;
43996;SDS011;34318;45.818;15.964;2023-03-20T02:39:51;9.15;;;6.28;;
43996;SDS011;34318;45.818;15.964;2023-03-20T02:42:28;9.90;;;6.30;;
43996;SDS011;34318;45.818;15.964;2023-03-20T02:50:25;7.65;;;5.30;;
43996;SDS011;34318;45.818;15.964;2023-03-20T02:52:56;7.82;;;5.75;;
43996;SDS011;34318;45.818;15.964;2023-03-20T02:55:34;7.78;;;5.80;;
43996;SDS011;34318;45.818;15.964;2023-03-20T02:58:08;7.30;;;5.28;;
43996;SDS011;34318;45.818;15.964;2023-03-20T03:00:37;9.82;;;5.90;;
43996;SDS011;34318;45.818;15.964;2023-03-20T03:03:07;7.53;;;5.50;;
43996;SDS011;34318;45.818;15.964;2023-03-20T03:05:39;6.55;;;5.25;;
43996;SDS011;34318;45.818;15.964;2023-03-20T03:08:08;9.32;;;5.30;;
43996;SDS011;34318;45.818;15.964;2023-03-20T03:10:40;8.98;;;5.60;;
43996;SDS011;34318;45.818;15.964;2023-03-20T03:13:11;8.18;;;6.05;;
43996;SDS011;34318;45.818;15.964;2023-03-20T03:15:41;9.77;;;5.90;;
43996;SDS011;34318;45.818;15.964;2023-03-20T03:18:12;6.47;;;4.80;;
43996;SDS011;34318;45.818;15.964;2023-03-20T03:20:40;8.93;;;5.30;;
43996;SDS011;34318;45.818;15.964;2023-03-20T03:23:09;8.05;;;5.38;;
43996;SDS011;34318;45.818;15.964;2023-03-20T03:25:40;5.80;;;5.20;;
43996;SDS011;34318;45.818;15.964;2023-03-20T03:30:38;6.32;;;5.15;;
43996;SDS011;34318;45.818;15.964;2023-03-20T03:33:08;8.38;;;5.57;;
43996;SDS011;34318;45.818;15.964;2023-03-20T03:35:39;7.78;;;5.53;;
43996;SDS011;34318;45.818;15.964;2023-03-20T03:40:52;9.35;;;5.32;;
43996;SDS011;34318;45.818;15.964;2023-03-20T03:43:26;7.13;;;5.15;;
43996;SDS011;34318;45.818;15.964;2023-03-20T03:45:58;7.40;;;5.57;;
43996;SDS011;34318;45.818;15.964;2023-03-20T03:48:29;7.78;;;5.32;;
43996;SDS011;34318;45.818;15.964;2023-03-20T03:50:59;7.43;;;5.40;;
43996;SDS011;34318;45.818;15.964;2023-03-20T03:53:29;10.20;;;6.15;;
43996;SDS011;34318;45.818;15.964;2023-03-20T03:55:59;7.07;;;5.43;;
43996;SDS011;34318;45.818;15.964;2023-03-20T04:01:14;6.20;;;4.80;;
43996;SDS011;34318;45.818;15.964;2023-03-20T04:03:45;6.43;;;5.00;;
43996;SDS011;34318;45.818;15.964;2023-03-20T04:06:12;6.53;;;4.93;;
43996;SDS011;34318;45.818;15.964;2023-03-20T04:08:41;6.35;;;4.72;;
43996;SDS011;34318;45.818;15.964;2023-03-20T04:11:16;6.15;;;5.55;;
43996;SDS011;34318;45.818;15.964;2023-03-20T04:13:43;6.88;;;4.95;;
43996;SDS011;34318;45.818;15.964;2023-03-20T04:16:13;5.05;;;4.55;;
43996;SDS011;34318;45.818;15.964;2023-03-20T04:18:41;7.18;;;4.95;;
43996;SDS011;34318;45.818;15.964;2023-03-20T04:21:08;5.50;;;4.60;;
43996;SDS011;34318;45.818;15.964;2023-03-20T04:23:36;8.05;;;4.88;;
43996;SDS011;34318;45.818;15.964;2023-03-20T04:26:04;7.53;;;4.82;;
43996;SDS011;34318;45.818;15.964;2023-03-20T04:28:31;7.70;;;5.22;;
43996;SDS011;34318;45.818;15.964;2023-03-20T04:30:59;9.65;;;4.75;;
43996;SDS011;34318;45.818;15.964;2023-03-20T04:33:27;6.80;;;4.95;;
43996;SDS011;34318;45.818;15.964;2023-03-20T04:35:54;8.55;;;5.00;;
43996;SDS011;34318;45.818;15.964;2023-03-20T04:38:22;6.55;;;5.15;;
43996;SDS011;34318;45.818;15.964;2023-03-20T04:40:49;5.47;;;4.15;;
43996;SDS011;34318;45.818;15.964;2023-03-20T04:43:17;5.85;;;4.85;;
43996;SDS011;34318;45.818;15.964;2023-03-20T04:45:45;7.05;;;4.97;;
43996;SDS011;34318;45.818;15.964;2023-03-20T04:48:12;5.63;;;4.50;;
43996;SDS011;34318;45.818;15.964;2023-03-20T04:50:40;8.50;;;4.53;;
43996;SDS011;34318;45.818;15.964;2023-03-20T04:53:07;6.85;;;4.47;;
43996;SDS011;34318;45.818;15.964;2023-03-20T04:55:34;7.43;;;4.82;;
43996;SDS011;34318;45.818;15.964;2023-03-20T04:58:02;6.10;;;4.78;;
43996;SDS011;34318;45.818;15.964;2023-03-20T05:00:29;5.57;;;4.65;;
43996;SDS011;34318;45.818;15.964;2023-03-20T05:02:56;7.07;;;4.65;;
43996;SDS011;34318;45.818;15.964;2023-03-20T05:05:24;4.82;;;4.18;;
43996;SDS011;34318;45.818;15.964;2023-03-20T05:07:51;11.02;;;4.43;;
43996;SDS011;34318;45.818;15.964;2023-03-20T05:10:18;4.90;;;4.40;;
43996;SDS011;34318;45.818;15.964;2023-03-20T05:12:46;5.97;;;4.20;;
43996;SDS011;34318;45.818;15.964;2023-03-20T05:15:13;6.03;;;4.28;;
43996;SDS011;34318;45.818;15.964;2023-03-20T05:17:40;5.20;;;4.05;;
43996;SDS011;34318;45.818;15.964;2023-03-20T05:20:08;4.70;;;3.97;;
43996;SDS011;34318;45.818;15.964;2023-03-20T05:22:35;5.88;;;4.70;;
43996;SDS011;34318;45.818;15.964;2023-03-20T05:25:03;7.72;;;4.35;;
43996;SDS011;34318;45.818;15.964;2023-03-20T05:27:30;5.50;;;4.35;;
43996;SDS011;34318;45.818;15.964;2023-03-20T05:29:57;4.82;;;3.72;;
43996;SDS011;34318;45.818;15.964;2023-03-20T05:32:24;5.47;;;4.18;;
43996;SDS011;34318;45.818;15.964;2023-03-20T05:34:52;7.93;;;4.55;;
43996;SDS011;34318;45.818;15.964;2023-03-20T05:37:19;6.95;;;4.50;;
43996;SDS011;34318;45.818;15.964;2023-03-20T05:39:46;7.78;;;4.47;;
43996;SDS011;34318;45.818;15.964;2023-03-20T05:42:13;9.38;;;4.68;;
43996;SDS011;34318;45.818;15.964;2023-03-20T05:44:41;4.63;;;4.07;;
43996;SDS011;34318;45.818;15.964;2023-03-20T05:47:08;6.03;;;4.75;;
43996;SDS011;34318;45.818;15.964;2023-03-20T05:49:35;5.65;;;4.68;;
43996;SDS011;34318;45.818;15.964;2023-03-20T05:52:03;8.15;;;4.97;;
43996;SDS011;34318;45.818;15.964;2023-03-20T05:54:30;7.30;;;4.72;;
43996;SDS011;34318;45.818;15.964;2023-03-20T05:56:57;7.45;;;5.60;;
43996;SDS011;34318;45.818;15.964;2023-03-20T05:59:25;9.48;;;5.35;;
43996;SDS011;34318;45.818;15.964;2023-03-20T06:01:52;6.90;;;4.60;;
43996;SDS011;34318;45.818;15.964;2023-03-20T06:04:19;6.25;;;4.38;;
43996;SDS011;34318;45.818;15.964;2023-03-20T06:06:47;5.22;;;4.63;;
43996;SDS011;34318;45.818;15.964;2023-03-20T06:09:14;5.45;;;3.97;;
43996;SDS011;34318;45.818;15.964;2023-03-20T06:11:41;9.05;;;5.75;;
43996;SDS011;34318;45.818;15.964;2023-03-20T06:14:08;10.40;;;4.25;;
43996;SDS011;34318;45.818;15.964;2023-03-20T06:16:36;7.53;;;3.88;;
43996;SDS011;34318;45.818;15.964;2023-03-20T06:19:03;8.95;;;4.55;;
43996;SDS011;34318;45.818;15.964;2023-03-20T06:21:30;8.05;;;4.97;;
43996;SDS011;34318;45.818;15.964;2023-03-20T06:23:58;10.15;;;4.68;;
43996;SDS011;34318;45.818;15.964;2023-03-20T06:26:25;9.23;;;4.57;;
43996;SDS011;34318;45.818;15.964;2023-03-20T06:28:53;8.55;;;4.68;;
43996;SDS011;34318;45.818;15.964;2023-03-20T06:31:20;8.70;;;4.40;;
43996;SDS011;34318;45.818;15.964;2023-03-20T06:33:47;8.82;;;4.82;;
43996;SDS011;34318;45.818;15.964;2023-03-20T06:36:15;9.05;;;4.50;;
43996;SDS011;34318;45.818;15.964;2023-03-20T06:38:42;6.18;;;3.95;;
43996;SDS011;34318;45.818;15.964;2023-03-20T06:41:09;8.65;;;4.35;;
43996;SDS011;34318;45.818;15.964;2023-03-20T06:43:43;7.15;;;4.18;;
43996;SDS011;34318;45.818;15.964;2023-03-20T06:46:11;12.93;;;5.97;;
43996;SDS011;34318;45.818;15.964;2023-03-20T06:48:38;11.20;;;4.78;;
43996;SDS011;34318;45.818;15.964;2023-03-20T06:51:06;8.93;;;5.07;;
43996;SDS011;34318;45.818;15.964;2023-03-20T06:53:33;11.35;;;4.63;;
43996;SDS011;34318;45.818;15.964;2023-03-20T06:56:00;7.78;;;4.45;;
43996;SDS011;34318;45.818;15.964;2023-03-20T06:58:28;10.13;;;4.63;;
43996;SDS011;34318;45.818;15.964;2023-03-20T07:00:55;5.65;;;4.25;;
43996;SDS011;34318;45.818;15.964;2023-03-20T07:03:22;9.23;;;4.45;;
43996;SDS011;34318;45.818;15.964;2023-03-20T07:05:49;8.10;;;4.60;;
43996;SDS011;34318;45.818;15.964;2023-03-20T07:08:17;6.85;;;5.45;;
43996;SDS011;34318;45.818;15.964;2023-03-20T07:10:44;8.73;;;4.78;;
43996;SDS011;34318;45.818;15.964;2023-03-20T07:13:12;6.85;;;4.40;;
43996;SDS011;34318;45.818;15.964;2023-03-20T07:15:39;5.68;;;4.25;;
43996;SDS011;34318;45.818;15.964;2023-03-20T07:18:26;6.82;;;4.60;;
43996;SDS011;34318;45.818;15.964;2023-03-20T07:20:57;10.68;;;4.60;;
43996;SDS011;34318;45.818;15.964;2023-03-20T07:23:24;7.88;;;5.57;;
43996;SDS011;34318;45.818;15.964;2023-03-20T07:25:52;6.90;;;4.57;;
43996;SDS011;34318;45.818;15.964;2023-03-20T07:28:19;8.10;;;4.60;;
43996;SDS011;34318;45.818;15.964;2023-03-20T07:30:46;6.40;;;4.40;;
43996;SDS011;34318;45.818;15.964;2023-03-20T07:33:13;10.90;;;4.82;;
43996;SDS011;34318;45.818;15.964;2023-03-20T07:35:41;8.43;;;4.53;;
43996;SDS011;34318;45.818;15.964;2023-03-20T07:38:08;8.32;;;4.72;;
43996;SDS011;34318;45.818;15.964;2023-03-20T07:40:36;9.20;;;4.70;;
43996;SDS011;34318;45.818;15.964;2023-03-20T07:43:03;9.25;;;5.20;;
43996;SDS011;34318;45.818;15.964;2023-03-20T07:45:31;10.13;;;4.68;;
43996;SDS011;34318;45.818;15.964;2023-03-20T07:47:58;9.07;;;4.40;;
43996;SDS011;34318;45.818;15.964;2023-03-20T07:50:25;6.90;;;5.22;;
43996;SDS011;34318;45.818;15.964;2023-03-20T07:52:53;11.35;;;5.07;;
43996;SDS011;34318;45.818;15.964;2023-03-20T07:55:20;6.95;;;4.47;;
43996;SDS011;34318;45.818;15.964;2023-03-20T07:57:47;8.85;;;5.13;;
43996;SDS011;34318;45.818;15.964;2023-03-20T08:00:15;10.60;;;4.80;;
43996;SDS011;34318;45.818;15.964;2023-03-20T08:02:42;12.43;;;5.18;;
43996;SDS011;34318;45.818;15.964;2023-03-20T08:05:10;11.27;;;5.40;;
43996;SDS011;34318;45.818;15.964;2023-03-20T08:07:37;9.55;;;4.47;;
43996;SDS011;34318;45.818;15.964;2023-03-20T08:10:04;10.95;;;4.70;;
43996;SDS011;34318;45.818;15.964;2023-03-20T08:12:32;8.07;;;4.68;;
43996;SDS011;34318;45.818;15.964;2023-03-20T08:14:59;8.35;;;4.20;;
43996;SDS011;34318;45.818;15.964;2023-03-20T08:17:27;7.18;;;5.07;;
43996;SDS011;34318;45.818;15.964;2023-03-20T08:19:54;8.38;;;4.63;;
43996;SDS011;34318;45.818;15.964;2023-03-20T08:22:21;8.48;;;4.35;;
43996;SDS011;34318;45.818;15.964;2023-03-20T08:24:48;10.15;;;5.13;;
43996;SDS011;34318;45.818;15.964;2023-03-20T08:27:16;9.52;;;4.88;;
43996;SDS011;34318;45.818;15.964;2023-03-20T08:29:43;17.52;;;6.57;;
43996;SDS011;34318;45.818;15.964;2023-03-20T08:32:11;10.38;;;5.50;;
43996;SDS011;34318;45.818;15.964;2023-03-20T08:34:38;8.70;;;4.90;;
43996;SDS011;34318;45.818;15.964;2023-03-20T08:37:05;12.43;;;4.50;;
43996;SDS011;34318;45.818;15.964;2023-03-20T08:39:33;9.15;;;5.05;;
43996;SDS011;34318;45.818;15.964;2023-03-20T08:42:01;13.18;;;5.57;;
43996;SDS011;34318;45.818;15.964;2023-03-20T08:44:28;8.75;;;5.25;;
43996;SDS011;34318;45.818;15.964;2023-03-20T08:46:55;8.55;;;4.82;;
43996;SDS011;34318;45.818;15.964;2023-03-20T08:49:22;9.13;;;6.05;;
43996;SDS011;34318;45.818;15.964;2023-03-20T08:51:50;9.27;;;5.88;;
43996;SDS011;34318;45.818;15.964;2023-03-20T08:54:17;16.38;;;6.88;;
43996;SDS011;34318;45.818;15.964;2023-03-20T08:56:44;12.13;;;6.75;;
43996;SDS011;34318;45.818;15.964;2023-03-20T08:59:12;14.88;;;6.95;;
43996;SDS011;34318;45.818;15.964;2023-03-20T09:01:39;12.40;;;7.13;;
43996;SDS011;34318;45.818;15.964;2023-03-20T09:04:15;10.73;;;6.93;;
43996;SDS011;34318;45.818;15.964;2023-03-20T09:06:42;11.75;;;7.25;;
43996;SDS011;34318;45.818;15.964;2023-03-20T09:09:09;11.02;;;7.13;;
43996;SDS011;34318;45.818;15.964;2023-03-20T09:11:40;13.80;;;7.43;;
43996;SDS011;34318;45.818;15.964;2023-03-20T09:14:08;16.17;;;10.20;;
43996;SDS011;34318;45.818;15.964;2023-03-20T09:16:35;12.70;;;7.70;;
43996;SDS011;34318;45.818;15.964;2023-03-20T09:19:02;11.10;;;7.57;;
43996;SDS011;34318;45.818;15.964;2023-03-20T09:21:30;12.70;;;8.13;;
43996;SDS011;34318;45.818;15.964;2023-03-20T09:23:57;14.90;;;8.00;;
43996;SDS011;34318;45.818;15.964;2023-03-20T09:26:24;13.02;;;7.45;;
43996;SDS011;34318;45.818;15.964;2023-03-20T09:28:51;13.75;;;7.90;;
43996;SDS011;34318;45.818;15.964;2023-03-20T09:31:18;15.10;;;8.63;;
43996;SDS011;34318;45.818;15.964;2023-03-20T09:33:46;17.98;;;8.30;;
43996;SDS011;34318;45.818;15.964;2023-03-20T09:36:13;14.25;;;8.40;;
43996;SDS011;34318;45.818;15.964;2023-03-20T09:38:41;12.65;;;8.57;;
43996;SDS011;34318;45.818;15.964;2023-03-20T09:41:21;12.98;;;8.27;;
43996;SDS011;34318;45.818;15.964;2023-03-20T09:51:21;16.42;;;8.57;;
43996;SDS011;34318;45.818;15.964;2023-03-20T09:53:52;13.77;;;8.35;;
43996;SDS011;34318;45.818;15.964;2023-03-20T09:56:26;12.57;;;8.32;;
43996;SDS011;34318;45.818;15.964;2023-03-20T09:58:55;14.48;;;7.97;;
43996;SDS011;34318;45.818;15.964;2023-03-20T10:01:23;14.52;;;7.30;;
43996;SDS011;34318;45.818;15.964;2023-03-20T10:03:54;11.57;;;7.55;;
43996;SDS011;34318;45.818;15.964;2023-03-20T10:06:22;12.75;;;7.50;;
43996;SDS011;34318;45.818;15.964;2023-03-20T10:08:50;11.98;;;7.90;;
43996;SDS011;34318;45.818;15.964;2023-03-20T10:16:39;11.95;;;7.55;;
43996;SDS011;34318;45.818;15.964;2023-03-20T10:21:38;12.35;;;6.85;;
43996;SDS011;34318;45.818;15.964;2023-03-20T10:24:25;10.32;;;7.13;;
43996;SDS011;34318;45.818;15.964;2023-03-20T10:26:52;10.35;;;6.88;;
43996;SDS011;34318;45.818;15.964;2023-03-20T10:29:24;13.25;;;6.97;;
43996;SDS011;34318;45.818;15.964;2023-03-20T10:31:59;11.97;;;6.90;;
43996;SDS011;34318;45.818;15.964;2023-03-20T10:34:37;10.95;;;7.13;;
43996;SDS011;34318;45.818;15.964;2023-03-20T10:39:45;8.25;;;6.68;;
43996;SDS011;34318;45.818;15.964;2023-03-20T10:42:20;8.30;;;6.25;;
43996;SDS011;34318;45.818;15.964;2023-03-20T10:44:57;7.97;;;6.25;;
43996;SDS011;34318;45.818;15.964;2023-03-20T10:47:27;8.75;;;6.90;;
43996;SDS011;34318;45.818;15.964;2023-03-20T10:50:18;10.65;;;6.82;;
43996;SDS011;34318;45.818;15.964;2023-03-20T10:52:48;8.50;;;6.70;;
43996;SDS011;34318;45.818;15.964;2023-03-20T10:55:21;8.60;;;6.50;;
43996;SDS011;34318;45.818;15.964;2023-03-20T10:57:50;13.27;;;6.05;;
43996;SDS011;34318;45.818;15.964;2023-03-20T11:00:22;8.63;;;6.05;;
43996;SDS011;34318;45.818;15.964;2023-03-20T11:02:51;8.32;;;6.07;;
43996;SDS011;34318;45.818;15.964;2023-03-20T11:05:22;8.05;;;6.25;;
43996;SDS011;34318;45.818;15.964;2023-03-20T11:07:50;10.10;;;6.25;;
43996;SDS011;34318;45.818;15.964;2023-03-20T11:10:27;6.70;;;5.82;;
43996;SDS011;34318;45.818;15.964;2023-03-20T11:12:57;9.25;;;6.10;;
43996;SDS011;34318;45.818;15.964;2023-03-20T11:17:52;8.02;;;5.78;;
43996;SDS011;34318;45.818;15.964;2023-03-20T11:20:19;7.15;;;5.65;;
43996;SDS011;34318;45.818;15.964;2023-03-20T11:22:47;8.65;;;5.82;;
43996;SDS011;34318;45.818;15.964;2023-03-20T11:25:22;6.55;;;5.57;;
43996;SDS011;34318;45.818;15.964;2023-03-20T11:30:18;8.05;;;5.43;;
43996;SDS011;34318;45.818;15.964;2023-03-20T11:32:49;7.53;;;6.00;;
43996;SDS011;34318;45.818;15.964;2023-03-20T11:37:45;8.73;;;6.18;;
43996;SDS011;34318;45.818;15.964;2023-03-20T11:40:14;11.80;;;5.82;;
43996;SDS011;34318;45.818;15.964;2023-03-20T11:42:52;9.45;;;6.28;;
43996;SDS011;34318;45.818;15.964;2023-03-20T11:45:20;8.00;;;6.13;;
43996;SDS011;34318;45.818;15.964;2023-03-20T11:47:49;10.73;;;6.05;;
43996;SDS011;34318;45.818;15.964;2023-03-20T11:50:35;9.30;;;6.00;;
43996;SDS011;34318;45.818;15.964;2023-03-20T11:53:16;10.45;;;5.88;;
43996;SDS011;34318;45.818;15.964;2023-03-20T11:55:57;15.15;;;6.70;;
43996;SDS011;34318;45.818;15.964;2023-03-20T11:58:25;10.05;;;6.10;;
43996;SDS011;34318;45.818;15.964;2023-03-20T12:00:54;6.85;;;5.50;;
43996;SDS011;34318;45.818;15.964;2023-03-20T12:05:59;10.05;;;5.90;;
43996;SDS011;34318;45.818;15.964;2023-03-20T12:08:27;13.02;;;6.50;;
43996;SDS011;34318;45.818;15.964;2023-03-20T12:10:57;15.25;;;5.80;;
43996;SDS011;34318;45.818;15.964;2023-03-20T12:13:29;9.40;;;5.68;;
43996;SDS011;34318;45.818;15.964;2023-03-20T12:16:00;10.40;;;5.90;;
43996;SDS011;34318;45.818;15.964;2023-03-20T12:19:30;10.35;;;6.20;;
43996;SDS011;34318;45.818;15.964;2023-03-20T12:21:29;16.55;;;7.32;;
43996;SDS011;34318;45.818;15.964;2023-03-20T12:24:00;41.83;;;16.52;;
43996;SDS011;34318;45.818;15.964;2023-03-20T12:26:35;35.42;;;15.30;;
43996;SDS011;34318;45.818;15.964;2023-03-20T12:31:53;22.85;;;11.93;;
43996;SDS011;34318;45.818;15.964;2023-03-20T12:34:25;38.35;;;12.73;;
43996;SDS011;34318;45.818;15.964;2023-03-20T12:36:54;25.58;;;11.45;;
43996;SDS011;34318;45.818;15.964;2023-03-20T12:39:24;23.98;;;12.35;;
43996;SDS011;34318;45.818;15.964;2023-03-20T12:44:37;34.88;;;17.92;;
43996;SDS011;34318;45.818;15.964;2023-03-20T12:47:11;26.55;;;16.83;;
43996;SDS011;34318;45.818;15.964;2023-03-20T12:49:47;56.20;;;27.83;;
43996;SDS011;34318;45.818;15.964;2023-03-20T12:54:55;277.85;;;100.72;;
43996;SDS011;34318;45.818;15.964;2023-03-20T12:57:36;235.50;;;85.13;;
43996;SDS011;34318;45.818;15.964;2023-03-20T13:13:02;98.28;;;39.42;;
43996;SDS011;34318;45.818;15.964;2023-03-20T13:20:47;61.17;;;26.17;;
43996;SDS011;34318;45.818;15.964;2023-03-20T13:25:48;65.93;;;25.33;;
43996;SDS011;34318;45.818;15.964;2023-03-20T13:41:41;44.40;;;17.85;;
43996;SDS011;34318;45.818;15.964;2023-03-20T13:44:10;45.45;;;19.63;;
43996;SDS011;34318;45.818;15.964;2023-03-20T13:46:42;40.05;;;18.60;;
43996;SDS011;34318;45.818;15.964;2023-03-20T13:49:13;35.25;;;15.35;;
43996;SDS011;34318;45.818;15.964;2023-03-20T13:52:16;39.95;;;16.33;;
43996;SDS011;34318;45.818;15.964;2023-03-20T14:02:26;24.00;;;12.05;;
43996;SDS011;34318;45.818;15.964;2023-03-20T14:05:04;24.50;;;12.05;;
43996;SDS011;34318;45.818;15.964;2023-03-20T14:07:33;19.05;;;11.13;;
43996;SDS011;34318;45.818;15.964;2023-03-20T14:12:47;14.93;;;9.13;;
43996;SDS011;34318;45.818;15.964;2023-03-20T14:15:15;17.20;;;8.85;;
43996;SDS011;34318;45.818;15.964;2023-03-20T14:17:48;15.40;;;9.02;;
43996;SDS011;34318;45.818;15.964;2023-03-20T14:20:33;16.42;;;9.20;;
43996;SDS011;34318;45.818;15.964;2023-03-20T14:23:01;15.80;;;8.98;;
43996;SDS011;34318;45.818;15.964;2023-03-20T14:25:38;13.77;;;8.88;;
43996;SDS011;34318;45.818;15.964;2023-03-20T14:30:39;13.65;;;8.20;;
43996;SDS011;34318;45.818;15.964;2023-03-20T14:35:49;18.80;;;9.25;;
43996;SDS011;34318;45.818;15.964;2023-03-20T14:51:57;19.85;;;10.70;;
43996;SDS011;34318;45.818;15.964;2023-03-20T14:54:27;16.92;;;10.10;;
43996;SDS011;34318;45.818;15.964;2023-03-20T14:56:55;19.98;;;10.77;;
43996;SDS011;34318;45.818;15.964;2023-03-20T14:59:34;19.85;;;10.32;;
43996;SDS011;34318;45.818;15.964;2023-03-20T15:02:01;16.13;;;10.05;;
43996;SDS011;34318;45.818;15.964;2023-03-20T15:04:41;18.00;;;9.65;;
43996;SDS011;34318;45.818;15.964;2023-03-20T15:07:15;16.35;;;10.45;;
43996;SDS011;34318;45.818;15.964;2023-03-20T15:09:44;19.70;;;9.75;;
43996;SDS011;34318;45.818;15.964;2023-03-20T15:12:12;16.08;;;10.02;;
43996;SDS011;34318;45.818;15.964;2023-03-20T15:14:44;22.60;;;10.27;;
43996;SDS011;34318;45.818;15.964;2023-03-20T15:17:18;20.35;;;10.20;;
43996;SDS011;34318;45.818;15.964;2023-03-20T15:19:45;21.05;;;9.98;;
43996;SDS011;34318;45.818;15.964;2023-03-20T15:22:16;24.60;;;10.35;;
43996;SDS011;34318;45.818;15.964;2023-03-20T15:24:51;17.73;;;10.07;;
43996;SDS011;34318;45.818;15.964;2023-03-20T15:27:18;18.40;;;9.63;;
43996;SDS011;34318;45.818;15.964;2023-03-20T15:29:48;19.27;;;9.98;;
43996;SDS011;34318;45.818;15.964;2023-03-20T15:32:17;19.52;;;9.65;;
43996;SDS011;34318;45.818;15.964;2023-03-20T15:34:44;14.80;;;9.07;;
43996;SDS011;34318;45.818;15.964;2023-03-20T15:37:16;16.55;;;9.40;;
43996;SDS011;34318;45.818;15.964;2023-03-20T15:39:47;16.90;;;9.02;;
43996;SDS011;34318;45.818;15.964;2023-03-20T15:42:15;18.15;;;10.18;;
43996;SDS011;34318;45.818;15.964;2023-03-20T15:44:44;17.65;;;10.02;;
43996;SDS011;34318;45.818;15.964;2023-03-20T15:47:20;18.52;;;10.63;;
43996;SDS011;34318;45.818;15.964;2023-03-20T15:49:51;14.13;;;9.15;;
43996;SDS011;34318;45.818;15.964;2023-03-20T15:54:50;16.48;;;8.90;;
43996;SDS011;34318;45.818;15.964;2023-03-20T15:57:19;14.40;;;9.15;;
43996;SDS011;34318;45.818;15.964;2023-03-20T15:59:49;15.57;;;8.57;;
43996;SDS011;34318;45.818;15.964;2023-03-20T16:02:16;20.90;;;9.93;;
43996;SDS011;34318;45.818;15.964;2023-03-20T16:04:47;15.57;;;8.60;;
43996;SDS011;34318;45.818;15.964;2023-03-20T16:07:27;12.85;;;8.55;;
43996;SDS011;34318;45.818;15.964;2023-03-20T16:09:56;12.80;;;8.43;;
43996;SDS011;34318;45.818;15.964;2023-03-20T16:12:24;20.88;;;9.80;;
43996;SDS011;34318;45.818;15.964;2023-03-20T16:14:52;13.90;;;8.15;;
43996;SDS011;34318;45.818;15.964;2023-03-20T16:17:20;18.48;;;8.82;;
43996;SDS011;34318;45.818;15.964;2023-03-20T16:19:48;16.92;;;8.73;;
43996;SDS011;34318;45.818;15.964;2023-03-20T16:24:44;23.55;;;9.05;;
43996;SDS011;34318;45.818;15.964;2023-03-20T16:27:13;14.38;;;7.78;;
43996;SDS011;34318;45.818;15.964;2023-03-20T16:29:43;10.98;;;8.05;;
43996;SDS011;34318;45.818;15.964;2023-03-20T16:32:17;14.68;;;8.80;;
43996;SDS011;34318;45.818;15.964;2023-03-20T16:34:48;15.55;;;7.57;;
43996;SDS011;34318;45.818;15.964;2023-03-20T16:37:21;28.13;;;24.55;;
43996;SDS011;34318;45.818;15.964;2023-03-20T16:40:00;26.20;;;19.05;;
43996;SDS011;34318;45.818;15.964;2023-03-20T16:42:28;25.13;;;19.60;;
43996;SDS011;34318;45.818;15.964;2023-03-20T16:44:56;23.35;;;20.42;;
43996;SDS011;34318;45.818;15.964;2023-03-20T16:47:32;30.35;;;22.15;;
43996;SDS011;34318;45.818;15.964;2023-03-20T16:50:11;25.75;;;18.92;;
43996;SDS011;34318;45.818;15.964;2023-03-20T16:52:55;21.08;;;18.00;;
43996;SDS011;34318;45.818;15.964;2023-03-20T16:55:23;24.45;;;19.27;;
43996;SDS011;34318;45.818;15.964;2023-03-20T16:57:54;22.02;;;18.85;;
43996;SDS011;34318;45.818;15.964;2023-03-20T17:00:32;25.45;;;20.17;;